Weather at Kastoria National Airport Aristotle

Public forecast

Using degrees Celsius for public forecast. Weather courtesy of forecast.io.

Closest aviation weather report (METAR) to Kastoria National Airport Aristotle

Closest report is Kozani State Airport Filippos, 27.3 nm (50.6 km) ESE. Retrieved 2022/01/17 15:20 UTC (32 minutes ago):

LGKZ 171520Z AUTO 34010KT 320V020 //// // ////// 05/M05 Q1018 RE//

Closest aviation forecast (TAF) to Kastoria National Airport Aristotle

Closest forecast is Ohrid St. Paul the Apostle Airport, 50.4 nm (93.4 km) NNW. Retrieved 2022/01/17 15:30 UTC (22 minutes ago):

TAF LWOH 171430Z 1715/1815 32006KT 9999 BKN050 TEMPO 1715/1717 -RA TEMPO 1720/1802 5000 -SN OVC035